MET'MAP v2.0
soon released !

Expected late october,
this new version will be
more efficient, smarter,
and hosted on a brand new
server x3 powerfull...
...and still free !


Not compatible ?
Try the mobile version !

LOG IN : | Subscribe | Disclaimer | Who is Orbifly ? |
ICAO code :

TAF - DAOI Chlef Int. - 14 Nov 2019 09:46 UTC - Data Source NOAA   


- Airport Elevation : 463 ft
- IATA code : QAS
- No reported NOTAMs.


DAOI - Chlef Int.

Latest METAR recorded : 2015/08/11 08:00 DAOI 110800Z 00000KT 9999 FEW030 SCT233 31/17 Q1014
TAF TAF DAOI
Valid from the 14 at 06:00 until the 15 at 06:00 UTC


140500Z 1406/1506 22011KT 9999 BKN026
BECMG 1410/1414 24015G30KT SCT026
BECMG 1415/1419 SCT020 BKN026 FEW030CB
TEMPO 1418/1424 5000 TSRA
PROB40
TEMPO 1419/1424 3000 TSSHRA SCT026CB

Source NOAA


MET'MAP, your aeronautical weather chart ! - Copyright ORBIFLY December 2007

Programming & Development : Alexandra Zaïnal
Co-Developer : Marc-Olivier Méhu
Technical & hardware support : Manuel Goepfert
Concept & Financing : Baudouin d'Aumeries